Time,TemperatureF,DewpointF,PressureIn,WindDirection,WindDirectionDegrees,WindSpeedMPH,WindSpeedGustMPH,Humidity,HourlyPrecipIn,Conditions,Clouds,dailyrainin,SoftwareType,DateUTC
2013-01-13 00:01:00,54.7,53.3,29.46,NNW,337,6.3,-999.0,95,-99.99,,,0.00,Acu-Link.com,2013-01-13 05:01:00,
2013-01-13 00:16:00,54.3,52.9,29.45,NE,45,7.3,-999.0,95,-99.99,,,0.00,Acu-Link.com,2013-01-13 05:16:00,
2013-01-13 00:31:00,54.0,52.6,29.44,North,0,8.9,-999.0,95,-99.99,,,0.03,Acu-Link.com,2013-01-13 05:31:00,
2013-01-13 00:47:00,53.8,52.4,29.42,NE,45,9.4,-999.0,95,-99.99,,,0.07,Acu-Link.com,2013-01-13 05:47:00,
2013-01-13 01:02:00,53.8,52.4,29.40,NNE,22,6.8,-999.0,95,-99.99,,,0.16,Acu-Link.com,2013-01-13 06:02:00,
2013-01-13 01:17:00,52.9,51.5,29.43,NNW,337,23.3,-999.0,95,-99.99,,,0.53,Acu-Link.com,2013-01-13 06:17:00,
2013-01-13 01:33:00,51.1,49.7,29.45,NNW,337,13.5,-999.0,95,-99.99,,,0.74,Acu-Link.com,2013-01-13 06:33:00,
2013-01-13 01:48:00,45.7,43.8,29.46,NW,315,18.6,-999.0,93,-99.99,,,0.85,Acu-Link.com,2013-01-13 06:48:00,
2013-01-13 02:03:00,44.4,42.5,29.47,NNW,337,18.1,-999.0,93,-99.99,,,0.86,Acu-Link.com,2013-01-13 07:03:00,
2013-01-13 02:19:00,43.9,42.0,29.48,NW,315,15.0,-999.0,93,-99.99,,,0.88,Acu-Link.com,2013-01-13 07:19:00,
2013-01-13 02:34:00,43.5,41.9,29.50,NNW,337,13.5,-999.0,94,-99.99,,,0.89,Acu-Link.com,2013-01-13 07:34:00,
2013-01-13 02:49:00,42.8,41.2,29.51,NW,315,8.9,-999.0,94,-99.99,,,0.90,Acu-Link.com,2013-01-13 07:49:00,
2013-01-13 03:04:00,42.8,41.2,29.48,NNE,22,5.8,-999.0,94,-99.99,,,0.92,Acu-Link.com,2013-01-13 08:04:00,
2013-01-13 03:19:00,42.8,41.2,29.52,West,270,9.9,-999.0,94,-99.99,,,0.99,Acu-Link.com,2013-01-13 08:19:00,
2013-01-13 03:35:00,42.8,41.2,29.54,West,270,5.8,-999.0,94,-99.99,,,1.00,Acu-Link.com,2013-01-13 08:35:00,
2013-01-13 03:50:00,42.1,40.5,29.56,WNW,292,15.5,-999.0,94,-99.99,,,1.03,Acu-Link.com,2013-01-13 08:50:00,
2013-01-13 04:09:00,40.6,38.7,29.56,NNW,337,11.9,-999.0,93,-99.99,,,1.04,Acu-Link.com,2013-01-13 09:09:00,
2013-01-13 04:24:00,39.6,37.7,29.56,NNW,337,9.4,-999.0,93,-99.99,,,1.07,Acu-Link.com,2013-01-13 09:24:00,
2013-01-13 04:40:00,39.4,37.5,29.56,North,0,4.7,-999.0,93,-99.99,,,1.09,Acu-Link.com,2013-01-13 09:40:00,
2013-01-13 04:55:00,39.0,36.9,29.60,NW,315,13.0,-999.0,92,-99.99,,,1.09,Acu-Link.com,2013-01-13 09:55:00,
2013-01-13 05:10:00,38.8,36.7,29.58,NNW,337,9.9,-999.0,92,-99.99,,,1.09,Acu-Link.com,2013-01-13 10:10:00,
2013-01-13 05:25:00,38.7,36.6,29.56,NNW,337,8.9,-999.0,92,-99.99,,,1.09,Acu-Link.com,2013-01-13 10:25:00,
2013-01-13 05:41:00,38.7,36.6,29.58,North,0,7.3,-999.0,92,-99.99,,,1.09,Acu-Link.com,2013-01-13 10:41:00,
2013-01-13 05:56:00,38.7,36.6,29.63,West,270,11.4,-999.0,92,-99.99,,,1.09,Acu-Link.com,2013-01-13 10:56:00,
2013-01-13 06:11:00,38.3,36.2,29.57,ENE,67,3.7,-999.0,92,-99.99,,,1.09,Acu-Link.com,2013-01-13 11:11:00,
2013-01-13 06:26:00,38.3,36.2,29.61,NW,315,4.7,-999.0,92,-99.99,,,1.09,Acu-Link.com,2013-01-13 11:26:00,
2013-01-13 06:41:00,38.3,36.2,29.62,WNW,292,7.3,-999.0,92,-99.99,,,1.10,Acu-Link.com,2013-01-13 11:41:00,
2013-01-13 06:57:00,38.3,36.2,29.64,NW,315,5.8,-999.0,92,-99.99,,,1.10,Acu-Link.com,2013-01-13 11:57:00,
2013-01-13 07:12:00,38.5,36.4,29.66,NW,315,5.8,-999.0,92,-99.99,,,1.10,Acu-Link.com,2013-01-13 12:12:00,
2013-01-13 07:27:00,38.3,35.9,29.63,NNE,22,6.8,-999.0,91,-99.99,,,1.10,Acu-Link.com,2013-01-13 12:27:00,
2013-01-13 07:42:00,38.1,36.0,29.64,NW,315,6.8,-999.0,92,-99.99,,,1.10,Acu-Link.com,2013-01-13 12:42:00,
2013-01-13 07:58:00,38.1,36.0,29.63,NW,315,6.3,-999.0,92,-99.99,,,1.10,Acu-Link.com,2013-01-13 12:58:00,
2013-01-13 08:13:00,37.8,35.7,29.63,NNW,337,4.7,-999.0,92,-99.99,,,1.10,Acu-Link.com,2013-01-13 13:13:00,
2013-01-13 08:28:00,37.6,35.8,29.63,NW,315,6.8,-999.0,93,-99.99,,,1.10,Acu-Link.com,2013-01-13 13:28:00,
2013-01-13 08:44:00,37.4,35.6,29.64,NW,315,6.3,-999.0,93,-99.99,,,1.10,Acu-Link.com,2013-01-13 13:44:00,
2013-01-13 08:59:00,37.4,35.6,29.66,NNW,337,6.3,-999.0,93,-99.99,,,1.10,Acu-Link.com,2013-01-13 13:59:00,
2013-01-13 09:14:00,37.4,35.6,29.67,NNW,337,8.9,-999.0,93,-99.99,,,1.10,Acu-Link.com,2013-01-13 14:14:00,
2013-01-13 09:30:00,37.2,35.4,29.67,NW,315,8.9,-999.0,93,-99.99,,,1.10,Acu-Link.com,2013-01-13 14:30:00,
2013-01-13 09:45:00,37.0,35.2,29.68,NW,315,7.8,-999.0,93,-99.99,,,1.10,Acu-Link.com,2013-01-13 14:45:00,
2013-01-13 10:00:00,37.0,35.4,29.67,NW,315,6.8,-999.0,94,-99.99,,,1.10,Acu-Link.com,2013-01-13 15:00:00,
2013-01-13 10:15:00,37.2,35.6,29.68,NW,315,6.3,-999.0,94,-99.99,,,1.10,Acu-Link.com,2013-01-13 15:15:00,
2013-01-13 10:31:00,37.2,35.6,29.66,North,0,4.2,-999.0,94,-99.99,,,1.11,Acu-Link.com,2013-01-13 15:31:00,
2013-01-13 10:46:00,37.4,35.8,29.66,NNW,337,5.8,-999.0,94,-99.99,,,1.11,Acu-Link.com,2013-01-13 15:46:00,
2013-01-13 11:01:00,37.4,35.8,29.68,WNW,292,9.4,-999.0,94,-99.99,,,1.11,Acu-Link.com,2013-01-13 16:01:00,
2013-01-13 11:17:00,37.4,35.8,29.69,WNW,292,8.3,-999.0,94,-99.99,,,1.11,Acu-Link.com,2013-01-13 16:17:00,
2013-01-13 11:32:00,37.4,35.8,29.70,West,270,7.3,-999.0,94,-99.99,,,1.11,Acu-Link.com,2013-01-13 16:32:00,
2013-01-13 11:47:00,37.0,35.4,29.69,NNW,337,11.9,-999.0,94,-99.99,,,1.11,Acu-Link.com,2013-01-13 16:47:00,
2013-01-13 12:03:00,37.0,35.4,29.66,NNW,337,6.8,-999.0,94,-99.99,,,1.12,Acu-Link.com,2013-01-13 17:03:00,
2013-01-13 12:18:00,36.5,34.7,29.68,NW,315,11.4,-999.0,93,-99.99,,,1.12,Acu-Link.com,2013-01-13 17:18:00,
2013-01-13 12:33:00,36.0,34.2,29.66,NW,315,10.4,-999.0,93,-99.99,,,1.12,Acu-Link.com,2013-01-13 17:33:00,
2013-01-13 12:48:00,35.6,33.8,29.62,NNE,22,5.8,-999.0,93,-99.99,,,1.12,Acu-Link.com,2013-01-13 17:48:00,
2013-01-13 13:04:00,35.6,33.8,29.60,North,0,3.7,-999.0,93,-99.99,,,1.12,Acu-Link.com,2013-01-13 18:04:00,
2013-01-13 13:19:00,35.4,33.8,29.60,North,0,6.3,-999.0,94,-99.99,,,1.12,Acu-Link.com,2013-01-13 18:19:00,
2013-01-13 13:34:00,35.1,33.6,29.59,NNW,337,5.8,-999.0,94,-99.99,,,1.12,Acu-Link.com,2013-01-13 18:34:00,
2013-01-13 13:49:00,35.1,33.6,29.62,NW,315,8.9,-999.0,94,-99.99,,,1.12,Acu-Link.com,2013-01-13 18:49:00,
2013-01-13 14:04:00,34.7,33.2,29.67,West,270,16.1,-999.0,94,-99.99,,,1.14,Acu-Link.com,2013-01-13 19:04:00,
2013-01-13 14:20:00,34.0,32.2,29.67,WNW,292,16.1,-999.0,93,-99.99,,,1.23,Acu-Link.com,2013-01-13 19:20:00,
2013-01-13 14:35:00,33.1,31.3,29.68,NNW,337,14.0,-999.0,93,-99.99,,,1.29,Acu-Link.com,2013-01-13 19:35:00,
2013-01-13 14:50:00,32.2,30.1,29.69,NNW,337,12.5,-999.0,92,-99.99,,,1.37,Acu-Link.com,2013-01-13 19:50:00,
2013-01-13 15:05:00,32.0,29.9,29.71,West,270,13.5,-999.0,92,-99.99,,,1.45,Acu-Link.com,2013-01-13 20:05:00,
2013-01-13 15:20:00,31.8,29.7,29.72,NNW,337,8.9,-999.0,92,-99.99,,,1.48,Acu-Link.com,2013-01-13 20:20:00,
2013-01-13 15:36:00,31.6,29.5,29.72,WNW,292,10.9,-999.0,92,-99.99,,,1.51,Acu-Link.com,2013-01-13 20:36:00,
2013-01-13 15:51:00,31.6,29.8,29.71,NNW,337,8.3,-999.0,93,-99.99,,,1.54,Acu-Link.com,2013-01-13 20:51:00,
2013-01-13 16:06:00,31.5,29.7,29.71,NW,315,14.0,-999.0,93,-99.99,,,1.56,Acu-Link.com,2013-01-13 21:06:00,
2013-01-13 16:22:00,31.6,29.8,29.70,WNW,292,11.4,-999.0,93,-99.99,,,1.57,Acu-Link.com,2013-01-13 21:22:00,
2013-01-13 16:37:00,31.6,29.5,29.71,NNW,337,8.3,-999.0,92,-99.99,,,1.57,Acu-Link.com,2013-01-13 21:37:00,
2013-01-13 16:52:00,31.6,29.5,29.72,NW,315,10.9,-999.0,92,-99.99,,,1.57,Acu-Link.com,2013-01-13 21:52:00,
2013-01-13 17:07:00,31.6,29.5,29.73,NNW,337,12.5,-999.0,92,-99.99,,,1.57,Acu-Link.com,2013-01-13 22:07:00,
2013-01-13 17:23:00,31.6,29.3,29.75,NW,315,13.0,-999.0,91,-99.99,,,1.57,Acu-Link.com,2013-01-13 22:23:00,
2013-01-13 17:38:00,31.5,29.4,29.76,West,270,5.8,-999.0,92,-99.99,,,1.57,Acu-Link.com,2013-01-13 22:38:00,
2013-01-13 17:53:00,31.5,29.4,29.78,NW,315,7.8,-999.0,92,-99.99,,,1.57,Acu-Link.com,2013-01-13 22:53:00,
2013-01-13 18:09:00,31.5,29.4,29.77,NW,315,7.3,-999.0,92,-99.99,,,1.57,Acu-Link.com,2013-01-13 23:09:00,
2013-01-13 18:24:00,31.5,29.4,29.78,NW,315,9.9,-999.0,92,-99.99,,,1.57,Acu-Link.com,2013-01-13 23:24:00,
2013-01-13 18:39:00,31.1,29.1,29.78,NNW,337,13.5,-999.0,92,-99.99,,,1.57,Acu-Link.com,2013-01-13 23:39:00,
2013-01-13 18:55:00,30.4,28.4,29.79,WNW,292,17.1,-999.0,92,-99.99,,,1.57,Acu-Link.com,2013-01-13 23:55:00,
2013-01-13 19:10:00,30.0,28.0,29.80,West,270,13.0,-999.0,92,-99.99,,,1.57,Acu-Link.com,2013-01-14 00:10:00,
2013-01-13 19:25:00,29.7,27.1,29.81,WNW,292,9.4,-999.0,90,-99.99,,,1.57,Acu-Link.com,2013-01-14 00:25:00,
2013-01-13 19:40:00,28.4,25.8,29.82,NW,315,8.9,-999.0,90,-99.99,,,1.57,Acu-Link.com,2013-01-14 00:40:00,
2013-01-13 19:55:00,27.9,25.4,29.83,WNW,292,7.8,-999.0,90,-99.99,,,1.57,Acu-Link.com,2013-01-14 00:55:00,
2013-01-13 20:11:00,27.0,24.2,29.85,WNW,292,12.5,-999.0,89,-99.99,,,1.57,Acu-Link.com,2013-01-14 01:11:00,
2013-01-13 20:26:00,26.1,23.0,29.85,NW,315,14.0,-999.0,88,-99.99,,,1.57,Acu-Link.com,2013-01-14 01:26:00,
2013-01-13 20:41:00,25.9,23.1,29.85,WNW,292,10.4,-999.0,89,-99.99,,,1.57,Acu-Link.com,2013-01-14 01:41:00,
2013-01-13 20:56:00,25.7,22.6,29.86,NW,315,11.9,-999.0,88,-99.99,,,1.57,Acu-Link.com,2013-01-14 01:56:00,
2013-01-13 21:11:00,25.3,22.3,29.86,West,270,14.0,-999.0,88,-99.99,,,1.57,Acu-Link.com,2013-01-14 02:11:00,
2013-01-13 21:27:00,24.4,20.8,29.87,WNW,292,12.5,-999.0,86,-99.99,,,1.57,Acu-Link.com,2013-01-14 02:27:00,
2013-01-13 21:42:00,23.7,20.4,29.89,WNW,292,13.5,-999.0,87,-99.99,,,1.57,Acu-Link.com,2013-01-14 02:42:00,
2013-01-13 21:57:00,23.0,19.4,29.88,WNW,292,11.4,-999.0,86,-99.99,,,1.57,Acu-Link.com,2013-01-14 02:57:00,
2013-01-13 22:12:00,22.8,19.3,29.89,WNW,292,11.4,-999.0,86,-99.99,,,1.57,Acu-Link.com,2013-01-14 03:12:00,
2013-01-13 22:27:00,22.1,18.3,29.90,WNW,292,14.0,-999.0,85,-99.99,,,1.57,Acu-Link.com,2013-01-14 03:27:00,
2013-01-13 22:43:00,21.9,18.4,29.91,SW,225,10.9,-999.0,86,-99.99,,,1.57,Acu-Link.com,2013-01-14 03:43:00,
2013-01-13 22:58:00,21.9,18.4,29.91,WNW,292,15.0,-999.0,86,-99.99,,,1.57,Acu-Link.com,2013-01-14 03:58:00,
2013-01-13 23:13:00,21.6,18.1,29.93,WSW,247,7.8,-999.0,86,-99.99,,,1.57,Acu-Link.com,2013-01-14 04:13:00,
2013-01-13 23:28:00,21.0,17.8,29.94,SW,225,5.3,-999.0,87,-99.99,,,1.57,Acu-Link.com,2013-01-14 04:28:00,
2013-01-13 23:43:00,20.7,16.9,29.95,West,270,10.9,-999.0,85,-99.99,,,1.57,Acu-Link.com,2013-01-14 04:43:00,
2013-01-13 23:59:00,20.5,17.0,29.96,WNW,292,15.0,-999.0,86,-99.99,,,1.57,Acu-Link.com,2013-01-14 04:59:00,